Terminal Aerodrome Forecast
Issued by NWS Cleveland, OH

Home | Current Version | Previous Version | Text Only | Print | Product List | Glossary On
Versions: 1 2 3 4 5 6 7 8 9 10 11 12 13 14 15 16 17 18
000
FTUS41 KCLE 192332
TAFTOL
TAF
KTOL 192332Z 2000/2024 21012G20KT P6SM OVC050
      TEMPO 2000/2003 4SM -SHRA OVC030
     FM200300 21012G20KT 4SM -SHRA OVC030
     FM201200 21015G25KT P6SM VCSH OVC040
     FM201700 21015G30KT P6SM OVC070=

USA.gov is the U.S. government's official web portal to all federal, state and local government web resources and services.